createdAt,value
2022-10-17T00:00:27.137Z,89.60
2022-10-17T00:01:31.130Z,89.45
2022-10-17T00:02:35.106Z,89.50
2022-10-17T00:03:40.318Z,89.44
2022-10-17T00:04:44.281Z,89.44
2022-10-17T00:05:49.911Z,89.92
2022-10-17T00:06:56.032Z,89.48
2022-10-17T00:08:01.696Z,89.54
2022-10-17T00:09:07.282Z,89.87
2022-10-17T00:10:12.377Z,89.77
2022-10-17T00:11:22.132Z,90.04
2022-10-17T00:12:27.919Z,90.02
2022-10-17T00:13:34.675Z,90.02
2022-10-17T00:14:38.695Z,90.28
2022-10-17T00:15:44.456Z,90.07
2022-10-17T00:16:48.390Z,90.04
2022-10-17T00:17:52.251Z,89.78
2022-10-17T00:18:56.697Z,89.52
2022-10-17T00:20:00.872Z,89.85
2022-10-17T00:21:05.043Z,89.62
2022-10-17T00:22:09.034Z,89.58
2022-10-17T00:23:15.602Z,89.68
2022-10-17T00:24:19.462Z,89.70
2022-10-17T00:25:24.762Z,89.64
2022-10-17T00:26:28.977Z,89.23
2022-10-17T00:27:41.083Z,89.25
2022-10-17T00:28:47.356Z,89.38
2022-10-17T00:29:55.332Z,89.29
2022-10-17T00:31:02.181Z,89.40
2022-10-17T00:32:06.292Z,89.13
2022-10-17T00:33:10.247Z,89.00
2022-10-17T00:34:14.245Z,89.42
2022-10-17T00:35:18.341Z,89.42
2022-10-17T00:36:25.005Z,89.25
2022-10-17T00:37:30.749Z,89.40
2022-10-17T00:38:37.089Z,89.13
2022-10-17T00:39:40.950Z,89.36
2022-10-17T00:40:45.007Z,89.55
2022-10-17T00:41:50.501Z,89.40
2022-10-17T00:42:54.439Z,89.67
2022-10-17T00:44:02.577Z,89.78
2022-10-17T00:45:09.472Z,89.72
2022-10-17T00:46:13.697Z,89.72
2022-10-17T00:47:20.612Z,90.17
2022-10-17T00:48:26.092Z,90.50
2022-10-17T00:49:33.007Z,90.36
2022-10-17T00:50:41.909Z,90.63
2022-10-17T00:51:51.537Z,90.25
2022-10-17T00:52:57.859Z,90.63
2022-10-17T00:54:05.686Z,90.46
2022-10-17T00:55:16.142Z,90.61
2022-10-17T00:57:35.587Z,90.56
2022-10-17T00:58:39.826Z,90.62
2022-10-17T00:59:46.209Z,91.10
2022-10-17T01:00:50.272Z,91.10
2022-10-17T01:02:03.963Z,90.73
2022-10-17T01:03:08.203Z,90.24
2022-10-17T01:04:13.210Z,90.59
2022-10-17T01:05:19.922Z,90.59
2022-10-17T01:06:23.923Z,90.20
2022-10-17T01:07:33.209Z,90.12
2022-10-17T01:08:38.180Z,90.26
2022-10-17T01:09:45.517Z,90.68
2022-10-17T01:11:08.745Z,90.49
2022-10-17T01:12:30.927Z,90.53
2022-10-17T01:13:43.753Z,90.73
2022-10-17T01:15:15.592Z,91.27
2022-10-17T01:16:22.575Z,91.28
2022-10-17T01:17:49.198Z,91.28
2022-10-17T01:19:03.418Z,91.18
2022-10-17T01:20:10.446Z,90.98
2022-10-17T01:21:36.667Z,90.73
2022-10-17T01:22:49.436Z,90.97
2022-10-17T01:24:29.410Z,91.26
2022-10-17T01:25:47.889Z,91.04
2022-10-17T01:27:10.050Z,90.89
2022-10-17T01:28:34.836Z,90.61
2022-10-17T01:30:03.546Z,90.61
2022-10-17T01:31:15.830Z,90.61
2022-10-17T01:32:29.377Z,90.50
2022-10-17T01:33:39.565Z,90.37
2022-10-17T01:34:52.507Z,90.26
2022-10-17T01:36:05.625Z,90.28
2022-10-17T01:37:25.722Z,90.36
2022-10-17T01:38:32.605Z,90.75
2022-10-17T01:39:54.656Z,90.75
2022-10-17T01:41:07.425Z,90.71
2022-10-17T01:42:30.567Z,90.35
2022-10-17T01:43:56.042Z,90.36
2022-10-17T01:45:08.911Z,90.39
2022-10-17T01:46:20.001Z,90.60
2022-10-17T01:47:31.625Z,91.01
2022-10-17T01:48:41.273Z,91.45
2022-10-17T01:49:48.204Z,91.66
2022-10-17T01:51:01.086Z,91.44
2022-10-17T01:52:13.726Z,91.44
2022-10-17T01:53:20.637Z,91.26
2022-10-17T01:54:30.087Z,91.92
2022-10-17T01:55:39.296Z,91.75
2022-10-17T01:56:48.608Z,91.75
2022-10-17T01:57:57.131Z,91.87
2022-10-17T01:59:16.042Z,91.67
2022-10-17T02:00:23.799Z,91.76
2022-10-17T02:01:30.554Z,91.72
2022-10-17T02:02:36.588Z,91.78
2022-10-17T02:03:43.461Z,91.31
2022-10-17T02:04:50.303Z,91.52
2022-10-17T02:05:58.220Z,91.52
2022-10-17T02:07:10.682Z,91.57
2022-10-17T02:08:16.621Z,91.89
2022-10-17T02:09:26.351Z,91.78
2022-10-17T02:10:43.580Z,91.59
2022-10-17T02:12:02.152Z,91.65
2022-10-17T02:13:21.003Z,91.84
2022-10-17T02:14:45.297Z,91.61
2022-10-17T02:15:55.319Z,91.64
2022-10-17T02:17:12.637Z,92.01
2022-10-17T02:18:31.483Z,92.64
2022-10-17T03:54:43.185Z,96.73
2022-10-17T03:55:42.805Z,96.83
2022-10-17T03:56:46.933Z,96.89
2022-10-17T03:57:50.882Z,96.87
2022-10-17T03:58:55.811Z,97.00
2022-10-17T03:59:59.671Z,97.00
2022-10-17T04:01:08.233Z,97.33
2022-10-17T04:02:12.265Z,97.58
2022-10-17T04:03:17.395Z,97.63
2022-10-17T04:04:21.762Z,97.63
2022-10-17T04:05:25.689Z,96.39
2022-10-17T04:06:29.620Z,96.15
2022-10-17T04:07:33.559Z,96.32
2022-10-17T04:08:37.426Z,96.67
2022-10-17T04:09:41.386Z,96.93
2022-10-17T04:10:45.355Z,96.93
2022-10-17T04:11:49.215Z,97.16
2022-10-17T04:12:53.151Z,97.17
2022-10-17T04:13:58.144Z,97.24
2022-10-17T04:15:02.039Z,97.30
2022-10-17T04:16:10.689Z,97.38
2022-10-17T04:17:17.201Z,97.38
2022-10-17T04:18:20.165Z,97.37
2022-10-17T04:19:25.652Z,97.37
2022-10-17T04:20:29.597Z,97.72
2022-10-17T04:21:33.465Z,98.07
2022-10-17T04:22:37.391Z,98.64
2022-10-17T04:23:41.263Z,98.79
2022-10-17T04:24:46.835Z,98.52
2022-10-17T04:25:50.722Z,98.88
2022-10-17T04:26:54.640Z,98.20
2022-10-17T04:27:58.583Z,98.29
2022-10-17T04:29:02.560Z,98.29
2022-10-17T04:30:07.367Z,98.85
2022-10-17T04:31:13.725Z,98.85
2022-10-17T04:32:17.661Z,98.80
2022-10-17T04:33:21.556Z,98.06
2022-10-17T04:34:25.605Z,98.21
2022-10-17T04:35:31.187Z,98.17
2022-10-17T04:36:35.122Z,97.94
2022-10-17T04:37:39.057Z,97.76
2022-10-17T04:38:42.960Z,97.18
2022-10-17T04:39:46.910Z,97.12
2022-10-17T04:40:51.001Z,97.10
2022-10-17T04:41:54.924Z,96.91
2022-10-17T04:43:01.805Z,96.64
2022-10-17T04:44:04.610Z,96.48
2022-10-17T04:45:09.017Z,96.42
2022-10-17T04:46:15.092Z,96.74
2022-10-17T04:47:19.115Z,96.74
2022-10-17T04:48:23.055Z,96.53
2022-10-17T04:49:27.007Z,96.10
2022-10-17T04:50:32.992Z,96.10
2022-10-17T04:51:36.584Z,96.21
2022-10-17T04:52:40.448Z,96.00
2022-10-17T04:53:50.782Z,95.88
2022-10-17T04:54:51.657Z,95.55
2022-10-17T04:55:55.710Z,94.84
2022-10-17T04:56:59.657Z,94.59
2022-10-17T04:58:03.663Z,94.31
2022-10-17T04:59:10.200Z,94.16
2022-10-17T05:00:15.874Z,93.83
2022-10-17T05:02:47.224Z,93.32
2022-10-17T05:03:51.331Z,92.76
2022-10-17T05:04:55.202Z,92.56
2022-10-17T05:06:00.414Z,92.12
2022-10-17T05:07:04.347Z,92.15
2022-10-17T05:08:10.827Z,92.19
2022-10-17T05:09:16.320Z,92.14
2022-10-17T05:10:20.370Z,91.55
2022-10-17T05:11:29.588Z,91.64
2022-10-17T05:12:33.508Z,91.43
2022-10-17T05:13:37.380Z,90.64
2022-10-17T05:14:41.297Z,90.68
2022-10-17T05:15:46.792Z,91.59
2022-10-17T05:16:52.221Z,91.59
2022-10-17T05:18:02.230Z,90.94
2022-10-17T05:19:17.143Z,90.65
2022-10-17T05:20:17.873Z,90.87
2022-10-17T05:21:23.297Z,90.43
2022-10-17T05:22:30.612Z,90.00
2022-10-17T05:23:35.066Z,90.00
2022-10-17T05:24:38.911Z,89.82
2022-10-17T05:25:42.797Z,89.18
2022-10-17T05:26:46.765Z,88.96
2022-10-17T05:27:50.743Z,88.96
2022-10-17T05:28:55.296Z,87.81
2022-10-17T05:29:59.240Z,86.94
2022-10-17T05:31:07.226Z,87.27
2022-10-17T05:32:11.174Z,86.49
2022-10-17T05:33:15.166Z,87.10
2022-10-17T05:34:19.060Z,87.10
2022-10-17T05:35:23.002Z,86.25
2022-10-17T05:36:26.968Z,86.19
2022-10-17T05:37:31.759Z,86.17
2022-10-17T05:38:35.812Z,85.99
2022-10-17T05:39:42.112Z,85.79
2022-10-17T05:44:04.667Z,84.31
2022-10-17T05:45:10.458Z,84.28
2022-10-17T05:46:14.569Z,84.28
2022-10-17T05:47:20.177Z,83.35
2022-10-17T05:48:24.567Z,83.44
2022-10-17T05:49:44.704Z,83.18
2022-10-17T05:52:04.628Z,83.20
2022-10-17T05:53:11.187Z,82.38
2022-10-17T05:54:15.101Z,82.25
2022-10-17T05:55:18.939Z,82.25
2022-10-17T05:56:24.387Z,81.76
2022-10-17T05:57:28.279Z,80.73
2022-10-17T05:58:51.555Z,80.22
2022-10-17T05:59:39.575Z,80.65
2022-10-17T06:01:50.087Z,80.45
2022-10-17T06:02:54.045Z,79.98
2022-10-17T06:03:57.955Z,79.66
2022-10-17T06:05:01.882Z,79.67
2022-10-17T06:06:13.481Z,80.25
2022-10-17T06:07:17.850Z,79.52
2022-10-17T06:08:22.252Z,79.52
2022-10-17T06:09:26.145Z,78.21
2022-10-17T06:10:30.128Z,78.21
2022-10-17T06:12:41.818Z,77.75
2022-10-17T06:13:12.719Z,78.09
2022-10-17T06:13:49.463Z,77.70
2022-10-17T06:14:53.309Z,78.05
2022-10-17T06:15:57.346Z,78.06
2022-10-17T06:17:01.316Z,77.90
2022-10-17T06:18:05.303Z,78.10
2022-10-17T06:19:10.295Z,77.70
2022-10-17T06:20:15.889Z,77.45
2022-10-17T06:21:25.189Z,78.01
2022-10-17T06:22:29.224Z,77.93
2022-10-17T06:23:33.620Z,78.06
2022-10-17T06:24:39.076Z,77.12
2022-10-17T06:25:43.003Z,77.02
2022-10-17T06:26:51.890Z,76.89
2022-10-17T06:27:55.737Z,77.45
2022-10-17T06:28:59.721Z,76.98
2022-10-17T06:30:04.045Z,77.22
2022-10-17T06:31:10.330Z,76.38
2022-10-17T06:32:17.166Z,76.14
2022-10-17T06:33:21.055Z,76.70
2022-10-17T06:34:26.018Z,76.70
2022-10-17T06:35:29.954Z,76.65
2022-10-17T06:36:33.934Z,75.50
2022-10-17T06:37:38.251Z,75.57
2022-10-17T06:38:44.390Z,75.75
2022-10-17T06:39:48.369Z,75.75
2022-10-17T06:40:52.654Z,75.22
2022-10-17T06:41:56.590Z,74.94
2022-10-17T06:43:00.540Z,75.90
2022-10-17T06:44:04.554Z,74.26
2022-10-17T06:45:12.379Z,74.26
2022-10-17T06:46:18.748Z,73.85
2022-10-17T06:47:22.738Z,74.24
2022-10-17T06:48:29.685Z,74.78
2022-10-17T06:49:32.390Z,74.13
2022-10-17T06:50:36.369Z,73.28
2022-10-17T06:51:40.390Z,72.59
2022-10-17T06:52:44.260Z,72.59
2022-10-17T06:53:48.123Z,73.29
2022-10-17T06:54:54.302Z,71.58
2022-10-17T06:55:58.457Z,71.58
2022-10-17T06:57:02.513Z,71.29
2022-10-17T06:58:06.390Z,71.49
2022-10-17T06:59:10.928Z,70.87
2022-10-17T07:00:15.028Z,68.51
2022-10-17T07:01:18.996Z,69.12
2022-10-17T07:02:23.929Z,68.62
2022-10-17T07:03:29.918Z,68.62
2022-10-17T07:04:33.876Z,68.72
2022-10-17T07:05:37.747Z,68.04
2022-10-17T07:06:41.870Z,67.94
2022-10-17T07:07:47.519Z,68.04
2022-10-17T07:08:51.971Z,67.09
2022-10-17T07:09:56.998Z,67.39
2022-10-17T07:11:11.634Z,67.55
2022-10-17T07:12:15.517Z,68.04
2022-10-17T07:13:20.519Z,68.14
2022-10-17T07:14:24.460Z,68.43
2022-10-17T07:15:28.313Z,68.43
2022-10-17T07:16:32.306Z,68.04
2022-10-17T07:17:36.382Z,68.50
2022-10-17T07:18:41.311Z,67.94
2022-10-17T07:19:45.432Z,68.05
2022-10-17T07:20:55.796Z,68.05
2022-10-17T07:22:01.890Z,67.13
2022-10-17T07:23:06.047Z,67.64
2022-10-17T07:24:09.913Z,68.24
2022-10-17T07:25:16.176Z,67.97
2022-10-17T07:26:20.679Z,66.89
2022-10-17T07:27:24.716Z,66.09
2022-10-17T07:28:31.004Z,67.37
2022-10-17T07:29:35.104Z,66.34
2022-10-17T07:30:39.043Z,66.34
2022-10-17T07:31:44.542Z,65.58
2022-10-17T07:32:48.779Z,66.90
2022-10-17T07:33:52.676Z,66.03
2022-10-17T07:34:56.601Z,65.99
2022-10-17T07:36:01.806Z,65.90
2022-10-17T07:37:05.749Z,65.90
2022-10-17T07:38:09.774Z,64.98
2022-10-17T07:39:13.703Z,64.75
2022-10-17T07:40:19.442Z,64.75
2022-10-17T07:41:23.320Z,65.01
2022-10-17T07:42:27.451Z,66.45
2022-10-17T07:43:31.709Z,65.77
2022-10-17T07:44:35.634Z,64.86
2022-10-17T07:45:41.061Z,64.26
2022-10-17T07:46:44.986Z,64.26
2022-10-17T07:47:48.992Z,64.06
2022-10-17T07:48:52.958Z,64.71
2022-10-17T07:49:58.895Z,64.26
2022-10-17T07:51:07.401Z,63.74
2022-10-17T07:52:12.591Z,63.68
2022-10-17T07:53:20.037Z,63.68
2022-10-17T07:54:28.528Z,64.63
2022-10-17T07:55:32.608Z,62.97
2022-10-17T07:56:37.141Z,62.60
2022-10-17T07:57:42.730Z,62.42
2022-10-17T07:58:51.291Z,62.42
2022-10-17T07:59:53.840Z,63.58
2022-10-17T08:02:06.699Z,60.67
2022-10-17T08:03:13.890Z,61.17
2022-10-17T08:04:17.787Z,61.17
2022-10-17T08:05:24.932Z,60.50
2022-10-17T08:06:28.912Z,59.15
2022-10-17T08:07:32.880Z,59.15
2022-10-17T08:08:36.778Z,60.57
2022-10-17T08:09:40.634Z,60.42
2022-10-17T08:10:46.656Z,59.87
2022-10-17T08:11:53.310Z,59.68
2022-10-17T08:12:58.676Z,59.68
2022-10-17T08:14:02.595Z,58.21
2022-10-17T08:15:08.033Z,57.75
2022-10-17T08:16:14.052Z,57.75
2022-10-17T08:17:20.538Z,59.55
2022-10-17T08:18:26.748Z,58.23
2022-10-17T08:19:30.797Z,59.85
2022-10-17T08:20:37.053Z,59.85
2022-10-17T08:21:40.931Z,58.71
2022-10-17T08:22:46.358Z,60.33
2022-10-17T08:23:50.303Z,60.04
2022-10-17T08:24:54.293Z,60.04
2022-10-17T08:26:00.600Z,58.34
2022-10-17T08:27:06.068Z,57.79
2022-10-17T08:28:11.584Z,57.79
2022-10-17T08:44:26.105Z,57.05
2022-10-17T08:45:48.138Z,56.02
2022-10-17T08:46:57.817Z,57.34
2022-10-17T08:48:06.890Z,57.14
2022-10-17T08:49:15.786Z,55.98
2022-10-17T08:50:30.012Z,54.04
2022-10-17T08:51:36.894Z,54.04
2022-10-17T08:52:46.995Z,53.95
2022-10-17T08:54:14.560Z,53.47
2022-10-17T08:55:42.752Z,53.47
2022-10-17T08:56:52.209Z,53.62
2022-10-17T08:57:56.353Z,53.87
2022-10-17T08:59:00.328Z,53.87
2022-10-17T09:00:06.538Z,55.13
2022-10-17T09:01:31.531Z,54.27
2022-10-17T09:02:52.000Z,53.72
2022-10-17T09:04:13.853Z,53.89
2022-10-17T09:05:35.626Z,53.89
2022-10-17T09:06:51.432Z,54.79
2022-10-17T09:08:03.844Z,53.26
2022-10-17T09:09:27.245Z,53.26
2022-10-17T09:10:53.823Z,53.38
2022-10-17T09:12:00.969Z,53.16
2022-10-17T09:14:51.481Z,52.99
2022-10-17T09:16:21.614Z,53.27
2022-10-17T09:18:07.898Z,53.95
2022-10-17T09:19:20.616Z,53.95
2022-10-17T09:20:27.672Z,53.49
2022-10-17T09:21:47.950Z,53.55
2022-10-17T09:23:05.790Z,52.91
2022-10-17T09:24:20.069Z,53.35
2022-10-17T09:25:25.551Z,52.97
2022-10-17T09:26:33.385Z,53.18
2022-10-17T09:28:27.366Z,52.98
2022-10-17T09:29:25.039Z,52.98
2022-10-17T09:30:45.277Z,53.52
2022-10-17T09:31:51.863Z,52.51
2022-10-17T09:32:57.076Z,52.94
2022-10-17T09:34:03.205Z,52.22
2022-10-17T09:35:12.669Z,52.22
2022-10-17T09:36:31.103Z,52.24
2022-10-17T09:37:35.135Z,53.40
2022-10-17T09:38:44.767Z,52.55
2022-10-17T09:39:51.329Z,52.15
2022-10-17T09:40:58.346Z,52.31
2022-10-17T09:42:03.157Z,52.31
2022-10-17T09:43:09.627Z,53.45
2022-10-17T09:44:22.741Z,51.45
2022-10-17T09:45:28.104Z,51.45
2022-10-17T09:46:37.733Z,51.88
2022-10-17T09:47:59.609Z,51.88
2022-10-17T09:49:17.203Z,51.22
2022-10-17T09:50:31.227Z,50.52
2022-10-17T09:51:37.658Z,50.60
2022-10-17T09:52:49.179Z,50.60
2022-10-17T09:53:56.210Z,49.96
2022-10-17T09:55:10.162Z,50.74
2022-10-17T09:56:18.300Z,50.09
2022-10-17T09:57:28.208Z,50.09
2022-10-17T09:58:50.965Z,51.06
2022-10-17T10:00:03.255Z,50.75
2022-10-17T10:01:22.957Z,50.38
2022-10-17T10:02:26.597Z,50.11
2022-10-17T10:03:30.649Z,49.46
2022-10-17T10:04:47.077Z,50.43
2022-10-17T10:05:43.734Z,50.43
2022-10-17T10:07:05.283Z,49.97
2022-10-17T10:08:15.391Z,49.42
2022-10-17T10:09:23.703Z,50.12
2022-10-17T10:10:30.628Z,50.12
2022-10-17T10:11:52.479Z,49.07
2022-10-17T10:13:06.723Z,48.58
2022-10-17T10:14:22.036Z,49.66
2022-10-17T10:15:39.131Z,49.26
2022-10-17T10:16:45.565Z,49.26
2022-10-17T10:17:49.499Z,49.15
2022-10-17T10:18:55.054Z,48.79
2022-10-17T10:19:59.403Z,48.66
2022-10-17T10:21:19.333Z,48.73
2022-10-17T10:22:26.665Z,48.19
2022-10-17T10:23:30.655Z,48.70
2022-10-17T10:24:36.402Z,48.51
2022-10-17T10:25:59.590Z,48.20
2022-10-17T10:27:05.146Z,47.71
2022-10-17T10:28:12.372Z,47.93
2022-10-17T10:29:40.383Z,47.29
2022-10-17T10:30:48.701Z,47.98
2022-10-17T10:31:54.659Z,47.98
2022-10-17T10:33:00.617Z,47.95
2022-10-17T10:34:13.201Z,48.08
2022-10-17T10:37:10.479Z,48.13
2022-10-17T10:56:53.627Z,46.31
2022-10-17T10:58:00.743Z,47.11
2022-10-17T10:59:08.937Z,47.58
2022-10-17T11:00:19.487Z,46.78
2022-10-17T11:01:42.831Z,46.78
2022-10-17T11:03:10.556Z,46.40
2022-10-17T11:04:21.089Z,46.17
2022-10-17T11:05:44.080Z,45.74
2022-10-17T11:06:50.760Z,45.84
2022-10-17T11:08:00.608Z,45.85
2022-10-17T11:09:39.345Z,46.34
2022-10-17T11:11:06.756Z,46.12
2022-10-17T11:12:28.873Z,45.31
2022-10-17T11:15:45.366Z,45.29
2022-10-17T11:16:58.385Z,44.85
2022-10-17T11:18:12.305Z,45.54
2022-10-17T11:19:49.609Z,45.20
2022-10-17T11:20:58.954Z,44.21
2022-10-17T11:22:22.912Z,44.45
2022-10-17T11:23:50.236Z,44.45
2022-10-17T11:25:17.641Z,44.60
2022-10-17T11:26:26.134Z,44.74
2022-10-17T11:27:31.153Z,44.98
2022-10-17T11:28:37.796Z,44.01
2022-10-17T11:29:45.720Z,43.99
2022-10-17T11:30:58.576Z,44.06
2022-10-17T11:32:06.668Z,44.13
2022-10-17T11:33:13.681Z,43.82
2022-10-17T11:34:26.606Z,43.82
2022-10-17T11:35:44.357Z,43.80
2022-10-17T11:36:53.021Z,44.74
2022-10-17T11:38:05.829Z,44.11
2022-10-17T11:39:16.075Z,44.53
2022-10-17T11:40:34.463Z,43.39
2022-10-17T11:41:58.855Z,43.15
2022-10-17T11:43:17.524Z,43.15
2022-10-17T11:44:33.599Z,42.60
2022-10-17T11:45:43.287Z,42.60
2022-10-17T11:46:50.266Z,43.42
2022-10-17T11:48:05.706Z,43.42
2022-10-17T11:49:20.064Z,43.46
2022-10-17T11:53:02.733Z,43.73
2022-10-17T11:53:58.059Z,43.92
2022-10-17T11:55:07.929Z,43.89
2022-10-17T11:56:14.956Z,43.04
2022-10-17T11:57:41.125Z,42.53
2022-10-17T11:58:48.210Z,43.48
2022-10-17T11:59:59.307Z,43.06
2022-10-17T12:01:24.595Z,43.44
2022-10-17T12:02:56.192Z,43.23
2022-10-17T12:04:28.401Z,43.36
2022-10-17T12:05:50.746Z,43.02
2022-10-17T12:07:04.145Z,43.02
2022-10-17T12:08:31.289Z,43.56
2022-10-17T12:09:31.399Z,43.56
2022-10-17T12:11:03.926Z,42.40
2022-10-17T12:12:08.428Z,42.80
2022-10-17T12:13:39.569Z,42.80
2022-10-17T12:16:24.601Z,42.77
2022-10-17T12:17:36.371Z,43.00
2022-10-17T12:18:40.404Z,43.07
2022-10-17T12:20:23.432Z,43.07
2022-10-17T12:21:31.273Z,42.72
2022-10-17T12:22:34.416Z,42.32
2022-10-17T12:23:40.060Z,42.85
2022-10-17T12:24:46.477Z,42.56
2022-10-17T12:25:58.264Z,42.56
2022-10-17T12:27:25.473Z,42.74
2022-10-17T12:28:32.019Z,42.78
2022-10-17T12:29:37.612Z,43.07
2022-10-17T12:31:03.141Z,42.77
2022-10-17T12:32:14.101Z,42.60
2022-10-17T12:33:21.042Z,42.90
2022-10-17T12:34:26.406Z,42.60
2022-10-17T12:35:32.845Z,43.32
2022-10-17T12:36:38.892Z,43.62
2022-10-17T12:37:51.257Z,43.54
2022-10-17T12:39:07.798Z,43.54
2022-10-17T12:40:41.475Z,42.73
2022-10-17T12:41:50.204Z,42.73
2022-10-17T12:42:57.231Z,43.29
2022-10-17T12:44:01.198Z,42.75
2022-10-17T12:45:09.772Z,43.26
2022-10-17T13:06:33.610Z,43.79
2022-10-17T13:07:40.593Z,43.20
2022-10-17T13:08:54.511Z,43.20
2022-10-17T13:09:59.877Z,43.44
2022-10-17T13:11:05.520Z,43.08
2022-10-17T13:12:15.626Z,42.53
2022-10-17T13:13:25.443Z,42.36
2022-10-17T13:14:34.755Z,42.67
2022-10-17T13:15:40.416Z,42.45
2022-10-17T13:16:59.339Z,42.66
2022-10-17T13:18:09.080Z,42.66
2022-10-17T13:19:16.939Z,42.93
2022-10-17T13:20:25.494Z,42.51
2022-10-17T13:22:51.687Z,42.18
2022-10-17T13:27:31.642Z,43.35
2022-10-17T13:28:39.185Z,42.13
2022-10-17T13:29:44.236Z,42.33
2022-10-17T13:30:49.797Z,42.55
2022-10-17T13:32:02.721Z,42.81
2022-10-17T13:33:12.166Z,42.81
2022-10-17T13:34:25.835Z,42.97
2022-10-17T13:36:43.599Z,42.96
2022-10-17T13:37:53.836Z,42.53
2022-10-17T13:38:57.715Z,42.98
2022-10-17T13:40:11.377Z,43.03
2022-10-17T13:41:34.202Z,42.71
2022-10-17T13:42:33.286Z,42.71
2022-10-17T13:43:37.523Z,42.38
2022-10-17T13:44:43.567Z,42.83
2022-10-17T13:45:53.326Z,41.96
2022-10-17T13:46:57.408Z,41.96
2022-10-17T13:48:04.335Z,41.95
2022-10-17T13:49:17.322Z,42.14
2022-10-17T13:50:51.407Z,41.71
2022-10-17T13:51:44.841Z,41.71
2022-10-17T13:52:50.821Z,41.79
2022-10-17T13:53:54.870Z,41.67
2022-10-17T13:55:16.847Z,41.67
2022-10-17T13:56:29.915Z,41.94
2022-10-17T13:57:32.401Z,41.48
2022-10-17T13:58:54.879Z,41.29
2022-10-17T14:00:07.043Z,41.29
2022-10-17T14:01:11.285Z,41.61
2022-10-17T14:02:18.376Z,41.76
2022-10-17T14:03:32.572Z,42.12
2022-10-17T14:04:56.612Z,41.86
2022-10-17T14:06:01.054Z,41.86
2022-10-17T14:07:06.736Z,42.03
2022-10-17T14:08:31.147Z,41.89
2022-10-17T14:09:29.509Z,42.11
2022-10-17T14:10:38.250Z,42.11
2022-10-17T14:11:44.641Z,42.44
2022-10-17T14:12:51.035Z,42.17
2022-10-17T14:14:03.554Z,41.91
2022-10-17T14:15:18.883Z,41.91
2022-10-17T14:16:24.011Z,42.38
2022-10-17T14:17:29.012Z,42.91
2022-10-17T14:18:36.594Z,42.79
2022-10-17T14:20:06.526Z,42.79
2022-10-17T14:22:29.032Z,43.52
2022-10-17T14:23:40.853Z,43.65
2022-10-17T14:24:45.227Z,43.57
2022-10-17T14:25:49.140Z,44.19
2022-10-17T14:26:58.368Z,44.17
2022-10-17T14:28:14.343Z,43.75
2022-10-17T14:29:30.193Z,43.75
2022-10-17T14:30:56.911Z,44.09
2022-10-17T14:31:42.789Z,44.53
2022-10-17T14:32:46.740Z,44.72
2022-10-17T14:33:53.403Z,45.13
2022-10-17T14:35:17.858Z,45.12
2022-10-17T14:36:05.618Z,44.85
2022-10-17T14:37:17.252Z,44.85
2022-10-17T14:38:22.046Z,45.19
2022-10-17T14:39:28.281Z,45.46
2022-10-17T14:40:34.778Z,46.16
2022-10-17T14:41:46.066Z,45.42
2022-10-17T14:42:53.130Z,45.98
2022-10-17T14:44:01.879Z,46.28
2022-10-17T14:45:13.657Z,45.72
2022-10-17T14:46:19.681Z,46.06
2022-10-17T14:47:43.981Z,46.21
2022-10-17T14:48:33.032Z,46.48
2022-10-17T14:49:39.636Z,46.85
2022-10-17T14:51:04.298Z,47.12
2022-10-17T14:52:19.577Z,47.40
2022-10-17T14:53:23.441Z,47.67
2022-10-17T14:54:28.330Z,47.84
2022-10-17T14:55:34.859Z,48.02
2022-10-17T14:56:41.808Z,47.88
2022-10-17T14:57:48.647Z,48.00
2022-10-17T14:58:54.331Z,48.00
2022-10-17T14:59:58.781Z,48.21
2022-10-17T15:01:11.211Z,48.26
2022-10-17T15:03:05.819Z,48.30
2022-10-17T15:03:27.812Z,48.80
2022-10-17T15:04:44.420Z,48.80
2022-10-17T15:05:40.721Z,48.80
2022-10-17T15:06:47.869Z,48.87
2022-10-17T15:07:51.888Z,49.01
2022-10-17T15:08:57.280Z,49.52
2022-10-17T15:10:17.449Z,49.52
2022-10-17T15:11:13.210Z,48.70
2022-10-17T15:12:25.581Z,48.70
2022-10-17T15:13:32.278Z,49.36
2022-10-17T15:14:35.286Z,49.36
2022-10-17T15:15:41.103Z,49.55
2022-10-17T15:16:45.261Z,49.67
2022-10-17T15:17:49.238Z,49.76
2022-10-17T15:18:54.208Z,49.45
2022-10-17T15:19:58.872Z,49.99
2022-10-17T15:21:05.488Z,50.33
2022-10-17T15:22:10.147Z,50.31
2022-10-17T15:23:15.378Z,50.31
2022-10-17T15:24:19.313Z,50.55
2022-10-17T15:25:25.192Z,50.55
2022-10-17T15:26:31.749Z,50.41
2022-10-17T15:27:36.061Z,50.41
2022-10-17T15:28:41.930Z,50.74
2022-10-17T15:29:45.985Z,50.45
2022-10-17T15:30:52.305Z,50.37
2022-10-17T15:31:56.353Z,50.64
2022-10-17T15:33:03.372Z,50.80
2022-10-17T15:34:08.591Z,50.97
2022-10-17T15:35:12.635Z,51.06
2022-10-17T15:36:35.053Z,50.88
2022-10-17T15:37:39.061Z,51.19
2022-10-17T15:38:45.924Z,50.82
2022-10-17T15:39:52.431Z,50.82
2022-10-17T15:40:59.528Z,51.11
2022-10-17T15:42:09.190Z,50.89
2022-10-17T15:43:19.927Z,51.16
2022-10-17T15:44:27.293Z,51.07
2022-10-17T15:45:34.457Z,51.07
2022-10-17T15:46:40.830Z,51.34
2022-10-17T15:47:49.647Z,51.34
2022-10-17T15:48:55.519Z,51.66
2022-10-17T15:50:00.803Z,51.74
2022-10-17T15:53:55.038Z,51.90
2022-10-17T16:27:11.717Z,53.92
2022-10-17T16:28:10.717Z,53.92
2022-10-17T16:29:16.423Z,54.00
2022-10-17T16:31:28.948Z,54.44
2022-10-17T16:32:33.366Z,54.19
2022-10-17T16:33:37.487Z,53.69
2022-10-17T16:34:42.934Z,53.69
2022-10-17T16:35:46.817Z,52.83
2022-10-17T16:36:50.787Z,52.62
2022-10-17T16:37:55.576Z,53.11
2022-10-17T16:39:02.093Z,53.77
2022-10-17T16:40:06.321Z,53.77
2022-10-17T16:41:34.220Z,52.75
2022-10-17T16:42:40.483Z,52.72
2022-10-17T16:43:44.095Z,52.85
2022-10-17T16:44:48.814Z,52.85
2022-10-17T16:45:53.715Z,52.97
2022-10-17T16:46:59.194Z,52.50
2022-10-17T16:49:17.124Z,53.06
2022-10-17T16:52:53.262Z,52.60
2022-10-17T16:53:57.332Z,52.59
2022-10-17T16:55:01.663Z,53.40
2022-10-17T16:56:07.850Z,52.64
2022-10-17T16:57:12.379Z,52.45
2022-10-17T16:58:18.040Z,52.53
2022-10-17T16:59:24.511Z,52.24
2022-10-17T17:00:31.052Z,52.59
2022-10-17T17:01:35.137Z,52.74
2022-10-17T17:08:12.840Z,51.90
2022-10-17T17:09:18.352Z,52.22
2022-10-17T17:10:22.833Z,52.97
2022-10-17T17:11:28.492Z,52.73
2022-10-17T17:12:35.751Z,52.73
2022-10-17T17:13:40.467Z,52.65
2022-10-17T17:14:46.064Z,53.09
2022-10-17T17:15:50.327Z,52.72
2022-10-17T17:16:54.518Z,52.53
2022-10-17T17:18:02.630Z,52.53
2022-10-17T17:19:07.055Z,52.95
2022-10-17T17:20:11.264Z,53.48
2022-10-17T17:21:15.627Z,53.62
2022-10-17T17:22:19.557Z,52.98
2022-10-17T17:23:23.463Z,52.52
2022-10-17T17:24:29.097Z,52.64
2022-10-17T17:28:19.688Z,53.48
2022-10-17T17:30:23.428Z,53.12
2022-10-17T17:30:47.722Z,53.38
2022-10-17T17:31:53.969Z,53.27
2022-10-17T17:32:57.893Z,53.27
2022-10-17T17:34:03.483Z,53.68
2022-10-17T17:35:12.395Z,53.68
2022-10-17T17:36:21.515Z,53.35
2022-10-17T17:37:25.223Z,53.30
2022-10-17T17:38:32.226Z,53.62
2022-10-17T17:39:36.218Z,53.57
2022-10-17T17:40:50.610Z,54.03
2022-10-17T17:41:53.173Z,53.67
2022-10-17T17:43:11.117Z,54.00
2022-10-17T17:44:10.121Z,53.97
2022-10-17T17:45:13.182Z,54.08
2022-10-17T17:46:19.471Z,53.69
2022-10-17T17:47:23.393Z,54.08
2022-10-17T17:48:27.340Z,54.13
2022-10-17T17:49:32.781Z,54.05
2022-10-17T17:50:42.397Z,53.94
2022-10-17T17:51:51.459Z,53.94
2022-10-17T17:52:54.081Z,54.42
2022-10-17T17:53:59.924Z,54.43
2022-10-17T17:55:07.885Z,54.75
2022-10-17T17:56:14.649Z,54.74
2022-10-17T17:57:18.562Z,54.44
2022-10-17T17:58:22.512Z,54.44
2022-10-17T17:59:31.460Z,54.41
2022-10-17T18:00:36.287Z,54.31
2022-10-17T18:01:43.018Z,54.45
2022-10-17T18:02:51.228Z,54.63
2022-10-17T18:04:09.307Z,54.20
2022-10-17T18:05:17.833Z,54.78
2022-10-17T18:06:33.065Z,54.78
2022-10-17T18:07:49.743Z,54.58
2022-10-17T18:09:04.287Z,54.58
2022-10-17T18:09:59.917Z,54.65
2022-10-17T18:11:04.139Z,54.96
2022-10-17T18:12:08.069Z,54.96
2022-10-17T18:13:13.606Z,55.13
2022-10-17T18:14:19.263Z,55.13
2022-10-17T18:15:31.904Z,55.29
2022-10-17T18:16:33.748Z,55.36
2022-10-17T18:17:37.978Z,55.69
2022-10-17T18:18:44.347Z,55.01
2022-10-17T18:19:51.482Z,55.65
2022-10-17T18:21:23.882Z,55.93
2022-10-17T18:22:10.623Z,55.64
2022-10-17T18:23:14.780Z,55.53
2022-10-17T18:24:21.584Z,55.45
2022-10-17T18:25:32.673Z,55.98